Terminal Aerodrome Forecast
Issued by NWS

Home | Current Version | Previous Version | Text Only | Print | Product List | Glossary On
Versions: 1 2 3 4 5 6 7 8 9 10 11 12 13 14 15 16 17 18 19 20 21 22 23 24 25 26 27 28 29 30 31 32 33 34 35 36 37 38 39 40 41 42 43 44 45 46 47 48 49 50
000
FTUS42 KMFL 050308 AAA
TAFOPF
TAF AMD
KOPF 050308Z 0503/0524 24011G18KT P6SM -SHRA VCTS SCT050CB BKN100
      OVC120
      TEMPO 0503/0504 24015G25KT 5SM TSRA SCT020CB BKN040
     FM050600 26012KT P6SM SCT020 SCT080 BKN100
     FM051100 32011KT P6SM SCT020 SCT060 SCT250
     FM051400 32012G22KT P6SM FEW050 SCT250=

USA.gov is the U.S. government's official web portal to all federal, state and local government web resources and services.